Time;durP1;ratioP1;P1;durP2;ratioP2;P2;SDS_P1;SDS_P2;PMS_P1;PMS_P2;Temp;Humidity;BMP_temperature;BMP_pressure;BME280_temperature;BME280_humidity;BME280_pressure;Samples;Min_cycle;Max_cycle;Signal;HPM_P1;HPM_P2
2023/05/16 00:01:56;;;;;;;7.30;6.60;;;11.30;99.90;;;;;;5036700;28;20722;-69
2023/05/16 00:04:23;;;;;;;8.27;7.23;;;11.10;99.90;;;;;;5043675;28;20888;-68
2023/05/16 00:06:50;;;;;;;8.73;7.75;;;11.10;99.90;;;;;;5040757;28;20895;-68
2023/05/16 00:09:18;;;;;;;9.95;7.82;;;11.10;99.90;;;;;;5033005;28;20516;-69
2023/05/16 00:11:45;;;;;;;9.10;7.10;;;11.20;99.90;;;;;;5042515;28;20669;-68
2023/05/16 00:14:13;;;;;;;8.38;7.35;;;11.20;99.90;;;;;;5041706;28;20919;-68
2023/05/16 00:16:40;;;;;;;9.38;7.90;;;11.10;99.90;;;;;;5038388;28;20429;-68
2023/05/16 00:19:08;;;;;;;8.70;7.50;;;11.00;99.90;;;;;;5042829;28;20445;-69
2023/05/16 00:21:35;;;;;;;9.20;7.60;;;11.00;99.90;;;;;;5043654;28;20429;-68
2023/05/16 00:24:02;;;;;;;10.25;8.20;;;10.90;99.90;;;;;;5043821;28;20452;-68
2023/05/16 00:26:31;;;;;;;9.15;8.35;;;10.90;99.90;;;;;;5041290;28;20441;-68
2023/05/16 00:28:57;;;;;;;11.20;9.40;;;10.90;99.90;;;;;;5038685;28;20448;-68
2023/05/16 00:31:24;;;;;;;13.85;9.55;;;10.90;99.90;;;;;;5043883;28;20431;-68
2023/05/16 00:33:51;;;;;;;10.50;9.35;;;10.90;99.90;;;;;;5042424;28;20429;-68
2023/05/16 00:36:18;;;;;;;10.50;9.30;;;11.00;99.90;;;;;;5043172;28;20444;-68
2023/05/16 00:38:44;;;;;;;11.47;9.90;;;11.00;99.90;;;;;;5040320;28;20527;-68
2023/05/16 00:41:11;;;;;;;11.20;9.17;;;11.00;99.90;;;;;;5031555;28;20890;-68
2023/05/16 00:43:39;;;;;;;11.30;9.40;;;10.90;99.90;;;;;;5043878;28;20436;-68
2023/05/16 00:46:06;;;;;;;10.60;9.27;;;10.90;99.90;;;;;;5035125;28;20497;-68
2023/05/16 00:48:33;;;;;;;10.30;9.30;;;10.90;99.90;;;;;;5045279;28;20418;-68
2023/05/16 00:51:01;;;;;;;12.10;10.77;;;10.80;99.90;;;;;;5043615;28;20433;-68
2023/05/16 00:53:28;;;;;;;13.88;12.48;;;10.80;99.90;;;;;;5052584;28;20432;-68
2023/05/16 00:55:55;;;;;;;13.73;12.30;;;10.80;99.90;;;;;;5057457;22;20435;-77
2023/05/16 00:58:23;;;;;;;16.70;14.90;;;10.80;99.90;;;;;;5051497;28;20424;-76
2023/05/16 01:00:51;;;;;;;18.90;15.95;;;10.80;99.90;;;;;;5054761;28;20451;-75
2023/05/16 01:03:18;;;;;;;22.10;18.35;;;10.90;99.90;;;;;;5052991;28;20440;-77
2023/05/16 01:05:45;;;;;;;21.13;18.92;;;10.90;99.90;;;;;;5042370;28;20422;-75
2023/05/16 01:08:12;;;;;;;20.90;18.70;;;10.90;99.90;;;;;;5045034;28;20419;-74
2023/05/16 01:10:44;;;;;;;22.27;19.85;;;10.90;99.90;;;;;;5040189;28;20440;-75
2023/05/16 01:13:18;;;;;;;22.17;19.77;;;11.00;99.90;;;;;;5034953;28;20440;-77
2023/05/16 01:15:50;;;;;;;24.38;19.48;;;11.00;99.90;;;;;;5034265;28;20436;-75
2023/05/16 01:18:25;;;;;;;24.00;20.83;;;11.00;99.90;;;;;;5036134;28;20439;-74
2023/05/16 01:20:59;;;;;;;22.83;19.43;;;11.00;99.90;;;;;;5033667;28;20508;-74
2023/05/16 01:23:42;;;;;;;25.05;20.85;;;11.10;99.90;;;;;;5024379;28;20513;-75
2023/05/16 01:26:20;;;;;;;21.50;18.88;;;11.10;99.90;;;;;;5032571;28;20481;-74
2023/05/16 01:28:48;;;;;;;19.67;17.67;;;11.10;99.90;;;;;;5037018;28;20437;-76
2023/05/16 01:31:16;;;;;;;21.42;18.30;;;11.00;99.90;;;;;;5034175;28;20813;-76
2023/05/16 01:33:43;;;;;;;23.15;18.65;;;11.00;99.90;;;;;;5033646;28;20455;-74
2023/05/16 01:36:19;;;;;;;20.92;18.27;;;11.00;99.90;;;;;;5040274;28;20416;-74
2023/05/16 01:38:56;;;;;;;25.73;19.17;;;11.00;99.90;;;;;;5028392;28;20422;-76
2023/05/16 01:41:29;;;;;;;24.42;19.42;;;11.00;99.90;;;;;;5035868;28;20435;-73
2023/05/16 01:44:01;;;;;;;25.80;21.08;;;11.10;99.90;;;;;;5034709;28;20431;-76
2023/05/16 01:46:33;;;;;;;25.10;20.70;;;11.10;99.90;;;;;;5032247;28;20485;-74
2023/05/16 01:49:15;;;;;;;23.42;20.60;;;11.00;99.90;;;;;;5039228;28;20433;-75
2023/05/16 01:51:45;;;;;;;27.70;24.00;;;10.90;99.90;;;;;;5030727;28;20544;-74
2023/05/16 01:54:17;;;;;;;26.60;22.80;;;10.90;99.90;;;;;;5035769;28;20427;-74
2023/05/16 01:56:51;;;;;;;27.90;24.05;;;10.90;99.90;;;;;;5035280;28;20457;-75
2023/05/16 01:59:20;;;;;;;28.42;24.52;;;10.80;99.90;;;;;;5028883;28;20471;-75
2023/05/16 02:01:46;;;;;;;28.83;24.10;;;10.70;99.90;;;;;;5033290;28;20434;-77
2023/05/16 02:04:14;;;;;;;30.65;25.40;;;10.70;99.90;;;;;;5030453;28;20805;-75
2023/05/16 02:06:41;;;;;;;28.37;24.13;;;10.70;99.90;;;;;;5041708;28;20814;-75
2023/05/16 02:09:08;;;;;;;32.22;26.40;;;10.70;99.90;;;;;;5029409;28;20434;-76
2023/05/16 02:11:35;;;;;;;31.05;25.50;;;10.60;99.90;;;;;;5036303;28;20922;-75
2023/05/16 02:14:03;;;;;;;28.48;23.95;;;10.60;99.90;;;;;;5036088;28;20435;-77
2023/05/16 02:16:30;;;;;;;31.58;24.98;;;10.60;99.90;;;;;;5029113;28;20438;-75
2023/05/16 02:18:57;;;;;;;30.02;24.65;;;10.50;99.90;;;;;;5035118;28;20468;-76
2023/05/16 02:21:24;;;;;;;32.90;25.88;;;10.50;99.90;;;;;;5029689;28;20442;-75
2023/05/16 02:23:50;;;;;;;34.47;26.10;;;10.50;99.90;;;;;;5030886;28;20441;-76
2023/05/16 02:26:17;;;;;;;29.60;24.17;;;10.50;99.90;;;;;;5030757;28;20929;-75
2023/05/16 02:28:44;;;;;;;28.15;21.80;;;10.50;99.90;;;;;;5030030;28;20423;-76
2023/05/16 02:31:12;;;;;;;23.45;19.40;;;10.40;99.90;;;;;;5027670;28;20466;-76
2023/05/16 02:33:40;;;;;;;17.23;14.00;;;10.30;99.90;;;;;;5031342;28;20425;-75
2023/05/16 02:36:07;;;;;;;19.30;13.27;;;10.20;99.90;;;;;;5046231;28;20433;-76
2023/05/16 02:38:34;;;;;;;14.30;11.27;;;10.20;99.90;;;;;;5029535;28;20930;-75
2023/05/16 02:41:01;;;;;;;13.13;10.05;;;10.20;99.90;;;;;;5044391;28;20429;-75
2023/05/16 02:43:28;;;;;;;13.43;9.10;;;10.20;99.90;;;;;;5045013;28;20432;-75
2023/05/16 02:45:54;;;;;;;20.10;10.27;;;10.10;99.90;;;;;;5038380;28;20958;-76
2023/05/16 02:48:22;;;;;;;12.40;9.40;;;10.10;99.90;;;;;;5029766;28;20447;-75
2023/05/16 02:50:49;;;;;;;17.10;9.10;;;10.10;99.90;;;;;;5038197;28;20440;-76
2023/05/16 02:53:16;;;;;;;14.10;9.10;;;10.10;99.90;;;;;;5050057;28;20434;-75
2023/05/16 02:55:43;;;;;;;14.07;8.23;;;10.00;99.90;;;;;;5041207;28;20794;-74
2023/05/16 02:58:09;;;;;;;16.15;8.52;;;10.00;99.90;;;;;;5033877;28;20415;-77
2023/05/16 03:00:36;;;;;;;11.07;7.40;;;9.90;99.90;;;;;;5034499;28;20441;-77
2023/05/16 03:03:04;;;;;;;10.20;7.00;;;10.00;99.90;;;;;;5030994;28;21010;-77
2023/05/16 03:05:32;;;;;;;15.05;7.53;;;9.90;99.90;;;;;;5031967;28;20520;-75
2023/05/16 03:07:59;;;;;;;15.10;7.63;;;9.90;99.90;;;;;;5039266;28;20728;-77
2023/05/16 03:10:26;;;;;;;14.15;8.45;;;9.90;99.90;;;;;;5034692;28;20800;-76
2023/05/16 03:12:53;;;;;;;15.05;8.77;;;9.90;99.90;;;;;;5043385;28;20427;-76
2023/05/16 03:15:19;;;;;;;18.83;10.27;;;9.80;99.90;;;;;;5033961;28;20438;-77
2023/05/16 03:17:46;;;;;;;17.33;9.95;;;9.90;99.90;;;;;;5037544;28;20420;-75
2023/05/16 03:20:14;;;;;;;14.43;9.85;;;9.90;99.90;;;;;;5040401;28;20418;-75
2023/05/16 03:22:44;;;;;;;14.70;10.50;;;9.80;99.90;;;;;;5046653;28;20421;-75
2023/05/16 03:25:10;;;;;;;17.92;10.65;;;9.90;99.90;;;;;;5030171;28;20913;-75
2023/05/16 03:27:37;;;;;;;18.33;11.18;;;9.80;99.90;;;;;;5033440;28;20431;-75
2023/05/16 03:30:04;;;;;;;19.75;11.23;;;9.80;99.90;;;;;;5039475;28;20665;-75
2023/05/16 03:32:33;;;;;;;18.25;10.73;;;9.80;99.90;;;;;;5032555;28;20434;-75
2023/05/16 03:35:00;;;;;;;16.83;10.50;;;9.80;99.90;;;;;;5027050;28;20419;-75
2023/05/16 03:37:27;;;;;;;17.00;11.10;;;9.80;99.90;;;;;;5034624;28;20450;-76
2023/05/16 03:39:55;;;;;;;21.55;11.55;;;9.80;99.90;;;;;;5030746;28;20434;-75
2023/05/16 03:42:22;;;;;;;20.75;11.32;;;9.80;99.90;;;;;;5042915;28;20437;-75
2023/05/16 03:44:49;;;;;;;18.35;12.32;;;9.80;99.90;;;;;;5035670;28;20955;-75
2023/05/16 03:47:15;;;;;;;18.80;12.50;;;9.80;99.90;;;;;;5036443;28;20431;-75
2023/05/16 03:49:42;;;;;;;20.07;12.60;;;9.80;99.90;;;;;;5041230;28;20413;-78
2023/05/16 03:52:09;;;;;;;20.63;12.97;;;9.80;99.90;;;;;;5048491;28;20425;-77
2023/05/16 03:54:36;;;;;;;20.58;13.52;;;9.90;99.90;;;;;;5029201;28;20442;-77
2023/05/16 03:57:04;;;;;;;20.10;11.98;;;9.90;99.90;;;;;;5037421;28;20518;-78
2023/05/16 03:59:31;;;;;;;20.20;12.20;;;9.80;99.90;;;;;;5029693;28;20455;-76
2023/05/16 04:01:58;;;;;;;20.25;11.98;;;9.80;99.90;;;;;;5033539;28;20452;-76
2023/05/16 04:04:24;;;;;;;17.15;12.40;;;9.80;99.90;;;;;;5028144;28;20435;-78
2023/05/16 04:06:51;;;;;;;19.15;11.80;;;9.70;99.90;;;;;;5027357;28;20434;-77
2023/05/16 04:09:18;;;;;;;19.50;12.85;;;9.70;99.90;;;;;;5028938;28;20415;-77
2023/05/16 04:11:45;;;;;;;20.25;10.90;;;9.70;99.90;;;;;;5030079;28;20441;-76
2023/05/16 04:14:14;;;;;;;17.10;10.95;;;9.70;99.90;;;;;;5028688;28;20475;-75
2023/05/16 04:16:41;;;;;;;19.20;10.95;;;9.70;99.90;;;;;;5034511;28;20506;-76
2023/05/16 04:19:07;;;;;;;15.32;10.43;;;9.70;99.90;;;;;;5033491;28;20435;-76
2023/05/16 04:21:35;;;;;;;17.27;10.32;;;9.60;99.90;;;;;;5037356;28;20929;-75
2023/05/16 04:24:02;;;;;;;18.08;11.25;;;9.60;99.90;;;;;;5040338;28;20896;-75
2023/05/16 04:26:29;;;;;;;16.70;10.60;;;9.60;99.90;;;;;;5043889;28;20419;-75
2023/05/16 04:28:55;;;;;;;18.42;11.23;;;9.60;99.90;;;;;;5032031;28;20462;-77
2023/05/16 04:31:25;;;;;;;19.85;11.65;;;9.60;99.90;;;;;;5034506;28;20430;-76
2023/05/16 04:33:52;;;;;;;21.98;10.98;;;9.60;99.90;;;;;;5036091;28;20856;-77
2023/05/16 04:36:20;;;;;;;13.93;11.27;;;9.60;99.90;;;;;;5037218;28;20462;-76
2023/05/16 04:38:46;;;;;;;18.33;10.52;;;9.60;99.90;;;;;;5028059;28;20439;-78
2023/05/16 04:41:13;;;;;;;14.93;9.10;;;9.60;99.90;;;;;;5032524;28;20414;-78
2023/05/16 04:43:40;;;;;;;17.35;8.35;;;9.60;99.90;;;;;;5030983;28;20428;-76
2023/05/16 04:46:07;;;;;;;15.68;8.50;;;9.60;99.90;;;;;;5037495;28;20953;-76
2023/05/16 04:48:35;;;;;;;16.60;7.72;;;9.60;99.90;;;;;;5033778;28;20422;-77
2023/05/16 04:51:02;;;;;;;13.32;7.18;;;9.50;99.90;;;;;;5042658;28;20413;-76
2023/05/16 04:53:29;;;;;;;10.93;6.85;;;9.50;99.90;;;;;;5047552;28;20434;-76
2023/05/16 04:55:56;;;;;;;15.53;6.17;;;9.40;99.90;;;;;;5032708;28;20431;-78
2023/05/16 04:58:23;;;;;;;12.18;6.00;;;9.40;99.90;;;;;;5030466;28;20429;-77
2023/05/16 05:00:50;;;;;;;13.35;5.90;;;9.30;99.90;;;;;;5032336;28;20800;-76
2023/05/16 05:03:17;;;;;;;11.55;5.47;;;9.30;99.90;;;;;;5033712;28;20435;-77
2023/05/16 05:05:46;;;;;;;16.75;6.20;;;9.30;99.90;;;;;;5030340;28;20512;-75
2023/05/16 05:08:13;;;;;;;10.80;4.60;;;9.30;99.90;;;;;;5033559;28;21137;-76
2023/05/16 05:10:40;;;;;;;13.60;4.85;;;9.30;99.90;;;;;;5032025;28;20453;-76
2023/05/16 05:13:07;;;;;;;10.47;4.50;;;9.30;99.90;;;;;;5031777;28;20479;-76
2023/05/16 05:15:34;;;;;;;12.35;4.53;;;9.30;99.90;;;;;;5033768;28;20542;-76
2023/05/16 05:18:01;;;;;;;10.00;4.20;;;9.20;99.90;;;;;;5038142;28;20508;-76
2023/05/16 05:20:28;;;;;;;11.20;4.53;;;9.20;99.90;;;;;;5043762;28;20425;-77
2023/05/16 05:22:56;;;;;;;14.73;3.90;;;9.10;99.90;;;;;;5043145;28;20915;-75
2023/05/16 05:25:23;;;;;;;9.77;3.47;;;9.10;99.90;;;;;;5032460;28;20406;-76
2023/05/16 05:27:50;;;;;;;10.63;3.60;;;9.10;99.90;;;;;;5029973;28;20893;-77
2023/05/16 05:30:16;;;;;;;12.52;3.95;;;9.20;99.90;;;;;;5033084;28;20435;-78
2023/05/16 05:32:43;;;;;;;12.70;4.18;;;9.20;99.90;;;;;;5033159;28;20431;-77
2023/05/16 05:35:10;;;;;;;8.70;4.00;;;9.10;99.90;;;;;;5044766;28;20425;-77
2023/05/16 05:37:37;;;;;;;14.27;4.30;;;9.20;99.90;;;;;;5034010;28;20435;-77
2023/05/16 05:40:07;;;;;;;11.82;3.72;;;9.20;99.90;;;;;;5035799;28;20939;-78
2023/05/16 05:42:34;;;;;;;11.57;4.40;;;9.30;99.90;;;;;;5046158;28;20408;-77
2023/05/16 05:45:01;;;;;;;11.07;3.92;;;9.30;99.90;;;;;;5035718;28;20430;-78
2023/05/16 05:47:27;;;;;;;11.52;3.88;;;9.30;99.90;;;;;;5033735;28;20931;-77
2023/05/16 05:49:54;;;;;;;13.52;3.72;;;9.30;99.90;;;;;;5034470;28;20429;-77
2023/05/16 05:52:21;;;;;;;11.40;3.78;;;9.40;99.90;;;;;;5033583;28;20435;-77
2023/05/16 05:54:48;;;;;;;13.32;3.90;;;9.40;99.90;;;;;;5045486;28;20416;-77
2023/05/16 05:57:16;;;;;;;11.25;3.80;;;9.40;99.90;;;;;;5045016;28;20438;-77
2023/05/16 05:59:42;;;;;;;9.80;4.00;;;9.40;99.90;;;;;;5036533;28;20428;-77
2023/05/16 06:02:09;;;;;;;8.20;3.30;;;9.50;99.90;;;;;;5030535;28;20441;-77
2023/05/16 06:04:36;;;;;;;11.00;3.50;;;9.60;99.90;;;;;;5033292;28;20427;-77
2023/05/16 06:07:03;;;;;;;9.00;3.10;;;9.70;99.90;;;;;;5029523;28;20415;-77
2023/05/16 06:09:30;;;;;;;11.00;3.00;;;9.70;99.90;;;;;;5030366;28;20434;-77
2023/05/16 06:11:57;;;;;;;12.00;3.40;;;9.70;99.90;;;;;;5036424;28;20464;-77
2023/05/16 06:14:25;;;;;;;10.10;3.30;;;9.70;99.90;;;;;;5033117;28;20435;-77
2023/05/16 06:16:51;;;;;;;8.93;3.50;;;9.70;99.90;;;;;;5033409;28;20431;-77
2023/05/16 06:19:18;;;;;;;9.48;2.70;;;9.70;99.90;;;;;;5032548;28;20429;-76
2023/05/16 06:21:45;;;;;;;7.53;3.10;;;9.70;99.90;;;;;;5034866;28;20419;-76
2023/05/16 06:24:12;;;;;;;11.73;3.03;;;9.70;99.90;;;;;;5033208;28;20983;-76
2023/05/16 06:26:39;;;;;;;8.65;3.17;;;9.70;99.90;;;;;;5034681;28;20442;-76
2023/05/16 06:29:05;;;;;;;11.63;3.40;;;9.70;99.90;;;;;;5028479;28;20437;-76
2023/05/16 06:31:33;;;;;;;9.80;2.97;;;9.80;99.90;;;;;;5025208;28;20436;-76
2023/05/16 06:34:00;;;;;;;9.05;3.10;;;9.80;99.90;;;;;;5028840;28;20434;-76
2023/05/16 06:36:27;;;;;;;11.18;3.60;;;9.80;99.90;;;;;;5028725;28;20939;-76
2023/05/16 06:38:53;;;;;;;9.15;3.45;;;9.90;99.90;;;;;;5030953;28;20458;-76
2023/05/16 06:41:20;;;;;;;8.52;2.60;;;10.00;99.90;;;;;;5028703;28;20425;-76
2023/05/16 06:43:47;;;;;;;7.57;2.70;;;10.10;99.90;;;;;;5034968;28;20434;-76
2023/05/16 06:46:14;;;;;;;7.63;2.80;;;10.20;99.90;;;;;;5028938;28;20443;-75
2023/05/16 06:48:42;;;;;;;7.60;2.70;;;10.30;99.90;;;;;;5028418;28;20809;-76
2023/05/16 06:51:08;;;;;;;8.88;3.00;;;10.40;99.80;;;;;;5031546;28;20430;-76
2023/05/16 06:53:35;;;;;;;6.25;2.20;;;10.50;99.90;;;;;;5036201;28;20429;-77
2023/05/16 06:56:02;;;;;;;8.27;2.83;;;10.50;98.50;;;;;;5034289;28;20433;-76
2023/05/16 06:58:29;;;;;;;5.82;2.22;;;10.60;97.90;;;;;;5028586;28;20947;-77
2023/05/16 07:00:56;;;;;;;6.82;2.60;;;10.60;98.10;;;;;;5027146;28;20443;-75
2023/05/16 07:03:22;;;;;;;7.13;2.38;;;10.50;97.70;;;;;;5036911;28;20435;-76
2023/05/16 07:05:51;;;;;;;12.18;3.00;;;10.50;97.30;;;;;;5028039;28;20461;-75
2023/05/16 07:08:18;;;;;;;8.05;3.30;;;10.50;97.50;;;;;;5031087;28;20925;-75
2023/05/16 07:10:45;;;;;;;7.90;2.70;;;10.50;96.90;;;;;;5028836;28;20415;-76
2023/05/16 07:13:12;;;;;;;7.50;2.20;;;10.50;97.40;;;;;;5028239;28;20433;-75
2023/05/16 07:15:38;;;;;;;6.93;2.58;;;10.50;96.80;;;;;;5024578;28;20455;-75
2023/05/16 07:18:05;;;;;;;6.90;2.40;;;10.50;96.00;;;;;;5034824;28;20418;-76
2023/05/16 07:20:32;;;;;;;10.90;3.17;;;10.50;96.20;;;;;;5029098;28;20422;-77
2023/05/16 07:23:00;;;;;;;7.60;3.28;;;10.50;96.20;;;;;;5037643;28;20413;-75
2023/05/16 07:25:27;;;;;;;7.60;2.65;;;10.50;96.10;;;;;;5033589;28;20438;-78
2023/05/16 07:27:54;;;;;;;8.00;3.10;;;10.60;95.60;;;;;;5027853;28;20916;-77
2023/05/16 07:30:21;;;;;;;8.35;2.67;;;10.60;95.50;;;;;;5027751;28;20438;-74
2023/05/16 07:32:48;;;;;;;5.13;2.40;;;10.70;94.70;;;;;;5029452;28;20908;-78
2023/05/16 07:35:14;;;;;;;11.68;2.88;;;10.90;93.90;;;;;;5034461;28;20419;-77
2023/05/16 07:37:42;;;;;;;8.95;2.50;;;11.10;93.70;;;;;;5028079;28;20434;-78
2023/05/16 07:40:11;;;;;;;5.40;2.40;;;11.30;92.80;;;;;;5028785;28;20419;-77
2023/05/16 07:42:38;;;;;;;8.07;2.70;;;11.60;91.60;;;;;;5031323;28;21028;-77
2023/05/16 07:45:07;;;;;;;6.40;2.40;;;11.70;91.00;;;;;;5041493;28;20441;-77
2023/05/16 07:47:33;;;;;;;7.28;2.28;;;11.80;88.90;;;;;;5033540;28;20494;-77
2023/05/16 07:50:00;;;;;;;5.55;1.90;;;11.80;86.00;;;;;;5039437;28;20462;-77
2023/05/16 07:52:27;;;;;;;6.00;2.10;;;11.80;87.80;;;;;;5026072;28;20953;-77
2023/05/16 07:54:54;;;;;;;6.35;2.00;;;11.80;86.90;;;;;;5026359;28;20444;-78
2023/05/16 07:57:22;;;;;;;7.47;2.47;;;11.80;86.90;;;;;;5035503;28;20432;-75
2023/05/16 07:59:50;;;;;;;6.88;2.20;;;12.00;86.00;;;;;;5031056;28;20446;-75
2023/05/16 08:02:17;;;;;;;5.25;2.08;;;12.10;84.00;;;;;;5033648;28;20434;-75
2023/05/16 08:04:44;;;;;;;4.85;2.00;;;12.10;81.60;;;;;;5034643;28;20417;-75
2023/05/16 08:07:11;;;;;;;6.65;2.13;;;12.20;81.00;;;;;;5044153;22;20929;-71
2023/05/16 08:09:38;;;;;;;6.28;2.15;;;12.30;80.60;;;;;;5021203;28;20748;-69
2023/05/16 08:12:05;;;;;;;5.43;2.20;;;12.50;79.30;;;;;;5028283;28;20437;-71
2023/05/16 08:14:33;;;;;;;5.00;2.20;;;12.70;77.90;;;;;;5027572;28;20436;-71
2023/05/16 08:17:00;;;;;;;5.95;2.22;;;13.00;76.80;;;;;;5023969;28;20490;-70
2023/05/16 08:19:28;;;;;;;5.88;2.60;;;13.30;74.70;;;;;;5017970;28;20459;-69
2023/05/16 08:21:55;;;;;;;6.82;3.60;;;13.80;73.10;;;;;;5019368;28;20435;-69
2023/05/16 08:24:21;;;;;;;8.02;3.20;;;14.20;73.00;;;;;;5020114;28;20442;-71
2023/05/16 08:26:48;;;;;;;7.05;2.90;;;14.50;69.20;;;;;;5022958;28;20881;-69
2023/05/16 08:29:15;;;;;;;6.75;2.85;;;14.70;68.80;;;;;;5024417;28;20419;-69
2023/05/16 08:31:43;;;;;;;7.05;3.00;;;14.60;67.80;;;;;;5015258;28;20429;-69
2023/05/16 08:34:10;;;;;;;4.88;2.80;;;14.40;66.00;;;;;;5023508;28;20777;-69
2023/05/16 08:36:36;;;;;;;6.90;2.92;;;14.20;67.60;;;;;;5037066;28;20933;-69
2023/05/16 08:39:04;;;;;;;7.30;3.53;;;14.10;69.10;;;;;;5020484;28;20442;-70
2023/05/16 08:41:31;;;;;;;5.57;3.40;;;13.90;68.40;;;;;;5021165;28;20518;-70
2023/05/16 08:43:58;;;;;;;6.00;3.10;;;13.80;67.40;;;;;;5021797;28;20447;-69
2023/05/16 08:46:28;;;;;;;6.07;2.70;;;13.70;68.20;;;;;;5015240;28;20432;-70
2023/05/16 08:49:00;;;;;;;5.82;2.70;;;13.70;68.50;;;;;;5018964;28;20785;-71
2023/05/16 08:51:33;;;;;;;5.07;2.80;;;13.60;65.20;;;;;;5019873;28;20916;-71
2023/05/16 08:54:03;;;;;;;5.88;2.40;;;13.60;67.60;;;;;;5016177;28;20514;-71
2023/05/16 08:56:31;;;;;;;6.43;2.80;;;13.60;68.10;;;;;;5012839;28;20427;-71
2023/05/16 08:58:58;;;;;;;4.97;2.90;;;13.80;67.30;;;;;;5018871;28;20443;-71
2023/05/16 09:01:25;;;;;;;4.53;2.60;;;14.10;67.10;;;;;;5019456;28;20461;-72
2023/05/16 09:03:52;;;;;;;8.15;2.60;;;14.40;66.70;;;;;;5019181;28;20526;-75
2023/05/16 09:06:20;;;;;;;4.38;2.60;;;14.80;65.40;;;;;;5020883;28;20435;-72
2023/05/16 09:08:47;;;;;;;5.75;2.65;;;15.20;63.10;;;;;;5016338;28;20433;-71
2023/05/16 09:11:14;;;;;;;4.68;2.50;;;15.40;63.00;;;;;;5027188;28;20488;-72
2023/05/16 09:13:41;;;;;;;5.38;2.40;;;15.60;59.40;;;;;;5024252;28;20790;-72
2023/05/16 09:16:08;;;;;;;4.10;2.00;;;15.70;55.20;;;;;;5024169;28;20437;-72
2023/05/16 09:18:36;;;;;;;4.90;2.13;;;15.60;55.50;;;;;;5020812;28;20491;-73
2023/05/16 09:21:03;;;;;;;4.90;2.00;;;15.60;55.40;;;;;;5025268;28;20505;-69
2023/05/16 09:23:31;;;;;;;3.47;2.28;;;15.50;54.20;;;;;;5026318;28;20445;-71
2023/05/16 09:25:58;;;;;;;3.20;1.88;;;15.40;54.30;;;;;;5023385;28;20447;-71
2023/05/16 09:28:25;;;;;;;6.53;2.10;;;15.30;55.20;;;;;;5027320;28;20928;-71
2023/05/16 09:30:54;;;;;;;3.80;2.00;;;15.40;54.50;;;;;;5023099;28;20446;-71
2023/05/16 09:33:22;;;;;;;3.92;2.30;;;15.70;53.40;;;;;;5044680;28;20479;-71
2023/05/16 09:35:56;;;;;;;4.50;2.28;;;15.90;53.50;;;;;;5021913;28;20521;-71
2023/05/16 09:38:22;;;;;;;5.22;2.20;;;16.10;52.60;;;;;;5017613;28;20424;-71
2023/05/16 09:40:51;;;;;;;4.63;2.17;;;16.00;52.30;;;;;;5016076;28;20439;-71
2023/05/16 09:43:18;;;;;;;5.18;2.28;;;15.90;51.20;;;;;;5026162;28;20508;-71
2023/05/16 09:45:47;;;;;;;3.72;2.40;;;15.80;52.70;;;;;;5013619;28;20427;-71
2023/05/16 09:48:15;;;;;;;4.28;2.10;;;15.80;52.50;;;;;;5018902;28;20467;-71
2023/05/16 09:50:48;;;;;;;3.67;1.80;;;15.80;52.50;;;;;;5007948;28;20432;-71
2023/05/16 09:53:15;;;;;;;4.60;2.10;;;16.00;48.60;;;;;;5005996;28;20447;-71
2023/05/16 09:55:42;;;;;;;4.05;1.95;;;16.10;50.60;;;;;;5022752;28;20537;-70
2023/05/16 09:58:10;;;;;;;4.13;1.85;;;16.10;50.00;;;;;;5018079;28;20432;-70
2023/05/16 10:00:37;;;;;;;6.97;2.42;;;16.00;50.30;;;;;;5022840;28;20761;-71
2023/05/16 10:03:04;;;;;;;5.63;2.13;;;16.00;51.10;;;;;;5016584;28;20433;-70
2023/05/16 10:05:31;;;;;;;5.07;1.80;;;16.10;51.30;;;;;;5032013;28;20530;-69
2023/05/16 10:07:58;;;;;;;3.58;1.85;;;16.30;51.50;;;;;;5031993;28;20913;-70
2023/05/16 10:10:27;;;;;;;6.72;2.00;;;16.10;49.00;;;;;;5026204;28;20990;-70
2023/05/16 10:12:59;;;;;;;5.75;1.98;;;15.80;48.90;;;;;;5025940;28;20439;-70
2023/05/16 10:15:27;;;;;;;4.97;2.00;;;15.80;50.70;;;;;;5012202;28;20427;-70
2023/05/16 10:17:58;;;;;;;3.60;1.80;;;16.20;50.70;;;;;;5036043;28;20432;-70
2023/05/16 10:20:26;;;;;;;4.20;1.70;;;16.40;49.10;;;;;;5013530;28;20498;-70
2023/05/16 10:22:56;;;;;;;3.33;1.70;;;16.60;48.90;;;;;;5013713;28;20427;-71
2023/05/16 10:25:28;;;;;;;4.80;2.00;;;17.00;47.40;;;;;;5023750;28;20469;-69
2023/05/16 10:27:56;;;;;;;4.00;1.90;;;17.10;47.30;;;;;;5025076;28;20457;-70
2023/05/16 10:30:23;;;;;;;3.67;1.50;;;17.40;46.60;;;;;;5019516;28;20698;-70
2023/05/16 10:32:52;;;;;;;4.15;1.40;;;17.60;43.60;;;;;;5023937;28;20881;-70
2023/05/16 10:35:20;;;;;;;4.13;1.60;;;17.80;43.10;;;;;;5015428;28;20436;-69
2023/05/16 10:37:48;;;;;;;4.60;1.60;;;18.00;43.30;;;;;;5019194;28;20893;-69
2023/05/16 10:40:15;;;;;;;4.30;1.40;;;18.20;42.90;;;;;;5018023;28;20641;-69
2023/05/16 10:42:45;;;;;;;3.78;1.40;;;18.20;41.70;;;;;;5020064;28;20435;-69
2023/05/16 10:45:17;;;;;;;3.80;1.60;;;18.40;41.80;;;;;;5022345;28;20466;-69
2023/05/16 10:47:53;;;;;;;3.28;1.60;;;18.60;40.90;;;;;;5018670;28;20763;-67
2023/05/16 10:50:34;;;;;;;3.05;1.70;;;19.00;39.40;;;;;;5020152;28;20585;-71
2023/05/16 10:53:19;;;;;;;3.90;1.50;;;18.90;39.10;;;;;;5025154;28;20534;-69
2023/05/16 10:56:04;;;;;;;3.40;1.50;;;19.00;39.20;;;;;;5012775;28;20523;-70
2023/05/16 10:58:42;;;;;;;2.30;1.60;;;19.30;38.70;;;;;;5010147;28;20421;-70
2023/05/16 11:01:16;;;;;;;2.63;1.67;;;19.70;38.40;;;;;;5029343;28;20523;-68
2023/05/16 11:06:45;;;;;;;5.80;1.60;;;19.80;37.70;;;;;;5085949;27;20750;-68
2023/05/16 11:09:27;;;;;;;4.63;1.70;;;19.60;37.60;;;;;;5057109;28;20910;-68
2023/05/16 11:12:01;;;;;;;3.63;1.70;;;19.30;38.50;;;;;;5054158;28;20964;-67
2023/05/16 11:14:36;;;;;;;3.05;1.50;;;18.90;40.20;;;;;;5059221;28;20444;-67
2023/05/16 11:17:06;;;;;;;4.10;1.40;;;18.60;39.80;;;;;;5046491;28;20512;-68
2023/05/16 11:19:35;;;;;;;2.95;1.55;;;18.50;40.60;;;;;;5048654;28;20771;-67
2023/05/16 11:22:23;;;;;;;2.75;1.30;;;18.60;40.40;;;;;;5051149;28;20439;-69
2023/05/16 11:24:53;;;;;;;3.83;1.30;;;19.10;40.60;;;;;;5054678;28;20465;-68
2023/05/16 11:27:25;;;;;;;2.60;1.10;;;19.60;38.80;;;;;;5061995;28;20420;-68
2023/05/16 11:29:53;;;;;;;3.47;1.60;;;20.00;38.70;;;;;;5057199;28;20431;-68
2023/05/16 11:32:21;;;;;;;3.00;1.50;;;20.40;37.50;;;;;;5065449;28;20779;-68
2023/05/16 11:34:48;;;;;;;3.70;1.70;;;20.50;36.90;;;;;;5060468;28;20842;-68
2023/05/16 11:37:18;;;;;;;3.40;1.85;;;20.70;37.10;;;;;;5058449;28;20432;-68
2023/05/16 11:39:45;;;;;;;2.45;1.60;;;20.70;37.10;;;;;;5054896;28;20488;-68
2023/05/16 11:42:12;;;;;;;3.13;1.70;;;20.80;37.40;;;;;;5054521;28;20440;-68
2023/05/16 11:44:39;;;;;;;3.53;2.05;;;20.60;37.20;;;;;;5051517;28;20542;-69
2023/05/16 11:47:07;;;;;;;3.90;1.70;;;20.40;37.20;;;;;;5050810;28;20440;-69
2023/05/16 11:49:34;;;;;;;3.72;1.65;;;20.00;38.70;;;;;;5050972;28;20444;-69
2023/05/16 11:52:01;;;;;;;3.35;1.65;;;19.60;38.20;;;;;;5059779;28;20417;-69
2023/05/16 11:54:29;;;;;;;3.15;1.55;;;19.10;38.80;;;;;;5059863;28;20417;-70
2023/05/16 11:56:56;;;;;;;4.53;2.00;;;18.80;40.90;;;;;;5053458;28;20784;-69
2023/05/16 11:59:23;;;;;;;4.18;2.47;;;18.60;41.50;;;;;;5058538;28;20428;-69
2023/05/16 12:01:50;;;;;;;5.78;2.65;;;18.50;42.80;;;;;;5060817;28;20907;-71
2023/05/16 12:04:18;;;;;;;4.93;2.83;;;18.40;41.80;;;;;;5054052;28;20941;-70
2023/05/16 12:06:58;;;;;;;4.47;2.42;;;18.50;43.80;;;;;;5048345;28;20528;-71
2023/05/16 12:09:25;;;;;;;5.53;1.90;;;18.80;42.00;;;;;;5052741;28;20835;-70
2023/05/16 12:11:53;;;;;;;2.58;1.50;;;19.30;42.10;;;;;;5054466;28;20501;-70
2023/05/16 12:14:20;;;;;;;4.00;1.65;;;19.80;40.10;;;;;;5051866;28;20432;-70
2023/05/16 12:16:48;;;;;;;3.97;1.50;;;20.10;38.40;;;;;;5047536;28;20521;-70
2023/05/16 12:19:15;;;;;;;2.47;1.20;;;20.20;38.90;;;;;;5046560;28;20417;-70
2023/05/16 12:21:42;;;;;;;3.00;1.40;;;20.00;37.90;;;;;;5050627;28;20443;-71
2023/05/16 12:24:11;;;;;;;4.15;1.35;;;19.90;39.00;;;;;;5043829;28;20799;-69
2023/05/16 12:26:42;;;;;;;2.90;1.55;;;20.00;39.40;;;;;;5042845;28;20431;-69
2023/05/16 12:29:10;;;;;;;3.00;1.52;;;20.40;41.00;;;;;;5044884;28;20425;-71
2023/05/16 12:31:40;;;;;;;2.47;1.20;;;20.90;40.70;;;;;;5041155;28;20483;-79
2023/05/16 12:34:15;;;;;;;2.30;1.10;;;21.20;38.00;;;;;;5045075;28;20437;-67
2023/05/16 12:36:43;;;;;;;3.53;1.20;;;21.70;37.10;;;;;;5045987;28;20935;-66
2023/05/16 12:39:13;;;;;;;3.10;1.10;;;21.80;33.40;;;;;;5045445;28;20520;-66
2023/05/16 12:41:41;;;;;;;2.15;1.10;;;21.70;35.30;;;;;;5043020;28;20544;-69
2023/05/16 12:44:15;;;;;;;2.25;1.20;;;21.60;35.00;;;;;;5044401;28;20807;-67
2023/05/16 12:46:42;;;;;;;2.70;1.40;;;21.50;33.60;;;;;;5043360;28;20543;-63
2023/05/16 12:49:09;;;;;;;3.40;1.70;;;21.30;36.90;;;;;;5042641;28;20562;-70
2023/05/16 12:51:39;;;;;;;2.90;1.07;;;21.20;36.10;;;;;;5048618;28;20431;-71